Glenwillard, PA (15046)

9:41 PM EDT on July 24, 2016 (GMT -0400)
Quaker Heights | | Change Station

Elev 1138 ft 40.57 °N, 80.21 °W | Updated 5 minutes ago

Mostly Cloudy
Mostly Cloudy
72.7 °F
Feels Like 72.7 °F
N
0.0
Wind Variable Wind from West

Today
High -- | Low -- °F
--% Chance of Precip.
Yesterday
High -- | Low -- °F
Precip. -- in
Pressure 30.01 in
Visibility 10.0 miles
Clouds Mostly Cloudy 16000 ft
Mostly Cloudy 25000 ft
Dew Point 70 °F
Humidity 92%
Rainfall 0.34 in
Snow Depth Not available.
6:11 AM 8:43 PM
Waning Gibbous, 71% visible
METAR KPIT 250051Z 05004KT 10SM BKN160 BKN250 24/22 A3002 RMK AO2 SLP163 T02390217
Pressure 30.01 in
Visibility 10.0 miles
Clouds Mostly Cloudy 16000 ft
Mostly Cloudy 25000 ft
Dew Point 70 °F
Humidity 92%
Rainfall 0.34 in
Snow Depth Not available.
6:11 AM 8:43 PM
Waning Gibbous, 71% visible
METAR KPIT 250051Z 05004KT 10SM BKN160 BKN250 24/22 A3002 RMK AO2 SLP163 T02390217

10-Day Weather Forecast

Almanac

Astronomy

Jul. 24, 2016 Rise Set
Actual Time
Civil Twilight
Nautical Twilight
Astronomical Twilight
Moon
Length of Visible Light
Length of Day
Tomorrow will be .
, % of the Moon is Illuminated

Today's Extremes

State Highs State Lows

Community

WunderPhotos

Upload Photos

1,927,233 photos uploaded!

WunderBlog® & News

Nearby

Air Quality

  Air Quality AQ Index Pollutant
Not available.

Snow Depth

Station Depth Elevation

Earthquake Activity

City Distance Mag. Time & Date
Minimum magnitude displayed is 2.5.

Coastal Water Temperatures

Place Temperature

Stations

Nearby Weather Stations

Station Location Temp. Windchill Dew Point Humidity Wind Precip. Elev Updated Type
                   

Watches & Warnings

There are currently no watches in effect.